今日のアクセス数

    岡山グライダークラブ活動状況掲示板あなたは無料カウンター人目の訪問者です

岡山グライダークラブ
岡山市浦安南町639-1 岡南飛行場
 使用機:シャイベ式 SF25C型 ファルケ   JA2330
      ヴァレンティン式17E型 タイフーン  JA2342
 練習日:毎日曜日  クラブルーム:電話 086-265-1810
この掲示板は岡山グライダークラブの活動状況をお知らせする掲示板です。
!!!この掲示板は投稿規制をしています。!!!
クラブ関連各種情報は 岡山グライダークラブクラブルーム      を       .
  ブリーフイング情報は  岡山グライダークラブブリーフィングルーム  をご覧下さい。 .
※写真はクリックすると拡大して見ることが出来ます。
岡南飛行場へのアクセス等は 岡南飛行場管理事務所 をご覧ください。
クラブの ホームページ ができました。

ページ 1 (1〜10)ホームページへ戻る

8月5日
by OGC at 2018/8/5(日) 23:29:51 No.20180805232605 コメント】  削除 引用
1024 x 768 x 51,903バイト
No.1

08月05日
本日の参加者
  会員     11名
  その他      2名


@本日の様子



METAR
RJBK 050100Z 17004KT 140V220 10KM FEW030CU 32/24 Q1007 A2974
RKOB 050100Z 21004KT 130V260 9999 FEW025 SCT/// 31/24 Q1008
RJOT 050100Z 30004KT 220V020 9999 FEW030 32/25 Q1008
RJOA 050100Z VRB03KT 9999 FEW025 31/20 Q1009
TAF
RJOB 042305Z 0500/0606 20007KT 9999 FEW030 SCT045
     BECMG 0510/0512 35004KT
RJOT 042307Z 0500/0606 28008KT 9999 FEW030 SCT050
RJOA 042306Z 0500/0606 19006KT 9999 FEW025 SCT040

本日も暑〜い一日。フライトは、熱中症に気を付けながら、いつもの着陸訓練に、サーマルを探して今日も飛び回っていました。
また、先週、会員の教育証明の実地試験があり、見事、合格しました。


解散    17:12

1番機  11:55離陸 撤収機  16:25着陸 

SF25C JA2330 ファルケ     04Flt.1h45min  
17E   JA2342 タイフーン    03Flt.1h05min  
合計                    07Flt.2h50min

 水没HDD;復旧    DELL^データ復旧

7月22日
by OGC at 2018/7/22(日) 22:44:08 No.20180722223426 コメント】  削除 引用
1024 x 768 x 74,784バイト
No.1

07月22日
本日の参加者
  会員     14名
  その他      2名


@本日の様子



METAR
RJBK 220100Z 18003KT 130V250 30KM FEW025CU 31/22 Q1011 A2986
RKOB 220100Z 07003KT 030V130 9999 FEW010 SCT020 29/24 Q1012
RJOT 220100Z VRB05KT 9999 FEW025 31/25 Q1012
RJOA 220100Z VRB03KT 9999 FEW015 SCT020 30/23 Q1013
TAF
RJOB 212308Z 2200/2306 10004KT 9999 FEW020
         BECMG 2201/2203 19005KT
         BECMG 2212/2215 04004KT
          BECMG 2300/2303 21005KT
RJOT 212314Z 2200/2306 03005KT 9999 FEW025 SCT035
          TEMPO 2206/2209 TS FEW015 FEW020CB SCT025 BKN035
          BECMG 2208/2210 20005KTT
RJOA 212307Z 2200/2306 15004KT 9999 FEW020 SCT035
          BECMG 2201/2203 22005KT

本日も暑〜い一日で積雲ができ、先週よりはサーマルが期待できる一日でした。そこでフライトは、いつもの着陸訓練に、一人がエンジンカットランディングをすると他にも伝染しているようでした。


解散    18:08

1番機  11:00離陸 撤収機  17:40着陸 

SF25C JA2330 ファルケ     08Flt.3h20min  
17E   JA2342 タイフーン    05Flt.1h30min  
合計                    13Flt.4h50min

07月15日
by OGC at 2018/7/16(月) 00:01:52 No.20180715235804 コメント】  削除 引用
1024 x 768 x 77,032バイト
No.1

07月15日
本日の参加者
  会員     10名
  その他      0名


@本日の様子



METAR
RJBK 150000Z 09005KT 8KM FEW025CU 30/24 Q1012 A2989
RKOB 150000Z 12004KT 070V170 9999 FEW025 30/26 Q1013
RJOT 150000Z 36003KT 300V040 CAVOK 30/24 Q1013
RJOA 150000Z VRB02KT 9999 FEW025 29/23 Q1014
TAF
RJOB 142306Z 1500/1606 20007KT 9999 FEW025 SCT040
       BECMG 1510/1512 03004KT
       TEMPO 1518/1521 4000 BR FEW002 SCT005 BKN008
       BECMG 1600/1603 20006KT
RJOT 142306Z 1500/1606 20007KT 9999 FEW025 SCT040
       BECMG 1510/1512 03004KT
       TEMPO 1518/1521 4000 BR FEW002 SCT005 BKN008
       BECMG 1600/1603 20006KT
RJOA 142308Z 1500/1606 17005KT 9999 FEW030
       BECMG 1509/1511 32004KT
       BECMG 1600/1603 17005KT

本日は、快晴で気温も上がり日差しが痛く感じる一日でした。一方、フライトはいつも通り着陸訓練や慣熟訓練などを行い、昼過ぎの暑い時期はしばし休憩を取り、日が弱くなってから訓練を再開しました。


解散    18:00

1番機  11:10離陸 撤収機  17:20着陸 

SF25C JA2330 ファルケ     05Flt.2h00min  
17E   JA2342 タイフーン    04Flt.1h25min  
合計                    09Flt.3h25min

7月1日
by OGC at 2018/7/2(月) 00:34:19 No.20180702002612 コメント】  削除 引用
640 x 480 x 270,310バイト
No.1

07月01日
本日の参加者
  会員     9名
  その他     1名


@本日の様子



METAR
RJBK 010100Z 11015KT 20KM FEW025CU BKN/// 29/22 Q1015 A3000
RKOB 010100Z 11011KT 9999 FEW010 SCT020 BKN/// 28/24 Q1017
RJOT 010100Z 07006KT 020V100 9999 FEW030 BKN/// 30/24 Q1016
RJOA 010100Z 13007KT 090V190 9999 FEW015 SCT060 BKN/// 27/21 Q1017
TAF
RJOB 302313Z 0100/0206 13008KT 9999 FEW020 BKN040
          TEMPO 0104/0108 TS FEW010 SCT020 FEW025CB BKN035
          TEMPO 0118/0200 3000 BR BCFG FEW000 SCT005 BKN008
RJOT 302305Z 0100/0206 08005KT 9999 FEW020 BKN060
RJOA 302312Z 0100/0206 12007KT 9999 FEW015 BKN040
          TEMPO 0100/0101 FEW006 BKN009

本日は晴ですが、12020KT28KTと風が息をしながら一日中吹き、フライトを一時中断するほどでした。
とは言っても、いつも通り着陸訓練などを行い、楽しく過ごしました。


解散    16:30

1番機  11:05離陸 撤収機  15:00着陸 

SF25C JA2330 ファルケ     05Flt.1h50min  
17E   JA2342 タイフーン    00Flt.0h00min  
合計                    05Flt.1h50min
6月24日
by OGC at 2018/6/24(日) 23:26:45 No.20180624232437 コメント】  削除 引用
1024 x 768 x 58,325バイト
No.1

06月24日
本日の参加者
  会員    11名
  その他     0名


@本日の様子



METAR
RJBK 240000Z 19007KT 150V270 10KM FEW030CU 24/17 Q1007/A2974
RKOB 240000Z 25004KT 190V300 7000 FEW015 23/19 Q1007
RJOT 240000Z 24011KT 9999 FEW015 SCT060 22/19 Q1008
RJOA 240000Z 20004KT 160V230 7000 FEW004 SCT007 BKN010 20/17 Q1009
TAF
RJOB 232309Z 2400/2506 20008KT 9999 FEW025
RJOT 232306Z 2400/2506 26009KT 9999 FEW030
          BECMG 2503/2506 03005KT
RJOA 232309Z 2400/2506 20006KT 9999 FEW030

本日も快晴、風も程よい感じの訓練日和、フライトはいつも通り着陸訓練やNAV訓練、クラブルームでは教育証明の猛勉強や訓練生からの質問対応など、みんな目標に向かって熱心に励んでいました。


解散    16:06

1番機  11:20離陸 撤収機  15:30着陸 

SF25C JA2330 ファルケ     07Flt.2h15min  
17E   JA2342 タイフーン    04Flt.1h25min  
合計                    11Flt.3h40min
6月17日
by OGC at 2018/6/17(日) 22:12:00 No.20180617220405 コメント】  削除 引用
640 x 480 x 71,356バイト
No.1

06月17日
本日の参加者
  会員     8名
  その他     1名


@本日の様子



METAR
RJBK 170000Z 08006KT 040V110 30KM FEW020CU BKN/// 22/14 Q1013/A2992
RKOB 170000Z 07007KT 040V100 9999 FEW015 BKN/// 21/16 Q1013
RJOT 170000Z 05008KT 010V090 9999 FEW010 BKN/// 20/17 Q1013
RJOA 170000Z 10008KT 070V140 9999 FEW025 BKN/// 20/13 Q1013
TAF
RJOB 162308Z 1700/1806 08008KT 9999 FEW030
          BECMG 1703/1705 14010KT
          BECMG 1710/1712 06006KT
RJOT 162306Z 1700/1806 08010KT 9999 FEW025 SCT035
          TEMPO 1718/1803 2000 -SHRA BR FEW001 SCT003 BKN005
RJOA 162311Z 1700/1806 12008KT 9999 FEW030
          BECMG 1710/1712 05010KT
          BECMG 1800/1803 16005KT

本日は快晴、風も程よい感じの訓練日和でした。
フライトは、いつも通り着陸訓練やNAV訓練を行いました。また、田植え時期でもあり、参加人数が少なかったので早めの解散になりました。


解散    16:00

1番機  11:30離陸 撤収機  15:15着陸 

SF25C JA2330 ファルケ     05Flt.1h50min  
17E   JA2342 タイフーン    03Flt.1h00min  
合計                    08Flt.2h50min
6月10日
by OGC at 2018/6/10(日) 23:18:46 No.20180610231517 コメント】  削除 引用
1024 x 768 x 57,386バイト
No.1

06月10日
本日の参加者
  会員     7名
  その他     0名


@本日の様子



METAR
RJOB 100000Z 08007KT 9999 FEW020 SCT080 BKN160 19/16 Q1006
RJOT 100000Z 07010KT 9999 FEW030 SCT150 BKN/// 21/16 Q1006
RJOA 100000Z 07008KT 9999 FEW020 BKN070 18/14 Q1007
TAF
RJOB 092309Z 1000/1106 06007KT 9999 FEW015 BKN030 BKN045
          TEMPO 1006/1012 3000 SHRA BR BCFG FEW000 SCT003 BKN005
          TEMPO 1012/1015 4000 -SHRA BR FEW001 SCT005 BKN008
RJOT 092310Z 1000/1106 07010KT 6000 -SHRA FEW003 SCT008 BKN015
          TEMPO 1002/1010 3000 -SHRA BR BCFG FEW000 SCT004 BKN008
          BECMG 1010/1012 2000 BR BCFG FEW000 SCT005 BKN008
          TEMPO 1012/1021 0700 FG FEW000 SCT001 BKN003
          BECMG 1021/1100 9999 NSW FEW008 SCT015 BKN025
          BECMG 1100/1103 28008KT
RJOA 092306Z 1000/1106 07008KT 9999 FEW010 SCT020 BKN030
         TEMPO 1006/1012 4000 -SHRA BR FEW003 BKN008 BKN015
         TEMPO 1021/1103 3000 -SHRA BR FEW003 BKN008 BKN015


本日は午後から雨の予報でしたが、そこは「晴れの国!岡山」解散する16時頃まで雨は降りませんでした。
フライトは、いつも通り着陸訓練や特定操縦技能審査を手早く行い、早めに解散しました。


解散    15:47

1番機  10:55離陸 撤収機  14:50着陸 

SF25C JA2330 ファルケ     06Flt.1h45min  
17E   JA2342 タイフーン    03Flt.0h50min  
合計                    09Flt.2h35min
6月3日
by OGC at 2018/6/3(日) 23:46:15 No.20180603234326 コメント】  削除 引用
1024 x 768 x 164,259バイト
No.1

06月03日
本日の参加者
  会員    14名
  その他     0名


@本日の様子



METAR
RJBK 030000Z 09003KT 030V130 25KM FEW030CU BKN/// 22/15 Q1016 A3001
RJOB 030000Z VRB02KT CAVOK 22/16 Q1016
RJOT 030000Z VRB03KT 9999 FEW030 BKN/// 23/16 Q1016
RJOA 030000Z VRB02KT CAVOK 21/13 Q1017
TAF
RJOB 022307Z 0300/0406 14006KT 9999 FEW030
RJOT 022306Z 0300/0406 05007KT 9999 FEW030
RJOA 022307Z 0300/0406 15006KT 9999 FEW030
          BECMG 0310/0312 32005KT
          BECMG 0318/0321 12007KT


本日は日陰で風にあたっていると気持ちいい一日でした。
フライトは、いつも通り着陸訓練の他、加古川へのNAV訓練等を行いました。


解散    17:20

1番機  10:55離陸 撤収機  16:25着陸 

SF25C JA2330 ファルケ     08Flt.2h55min  
17E   JA2342 タイフーン    03Flt.2h10min  
合計                    11Flt.5h05min
05月27日
by OGC at 2018/5/27(日) 21:39:34 No.20180527213512 コメント】  削除 引用
1024 x 768 x 76,624バイト
No.1

05月27日
本日の参加者
  会員    11名
  その他     1名


@本日の様子



METAR
RJBK 270000Z VRB01KT 10KM BKN/// 23/14 A2989
RJOB 270000Z 24003KT 180V310 CAVOK 22/15 Q1012
RJOT 270000Z 35003KT 290V080 CAVOK 22/15 Q1012
RJOA 270000Z 28003KT 210V340 CAVOK 21/11 Q1013
TAF
RJOB 262307Z 2700/2806 19006KT CAVOK
     BECMG 2710/2712 05004KT
RJOT 262308Z 2700/2806 30005KT 9999 FEW030
     BECMG 2702/2704 05005KT
RJOA 262306Z 2700/2806 19006KT 9999 FEW030
     BECMG 2721/2800 13004KT

本日は積雲が一つもない穏やかな着陸練習日和でした。
フライトは、着陸練習の他、先週に引き続き笠岡ふれあい空港までNAV訓練に出たり、久しぶりに岡山桃太郎空港に行ったりしていました。



解散    17:20

1番機  11:35離陸 撤収機  16:20着陸 

SF25C JA2330 ファルケ     05Flt.1h40min  
17E   JA2342 タイフーン    05Flt.1h45min  
合計                    10Flt.3h25min
05月20日
by OGC at 2018/5/20(日) 22:25:57 No.20180520221039 コメント】  削除 引用
1024 x 768 x 74,219バイト
No.1

05月20日
本日の参加者
  会員    12名
  その他     3名


@本日の様子



METAR
RJBK 200000Z 09005KT 050V130 30KM FEW030CU SCT040CU 16/05 A3008
RJOB 200000Z 04009KT 350V070 9999 FEW025 BKN030 14/08 Q1018
RJOT 200000Z 08009KT 040V130 9999 FEW030 15/07 Q1018
RJOA 200000Z 07013KT 9999 FEW020 SCT025 15/07 Q1018
TAF
RJOB 192305Z 2000/2106 05009KT 9999 FEW025
     BECMG 2103/2106 12012KT
RJOT 192308Z 2000/2106 07012KT 9999 FEW030
     BECMG 2010/2012 15009KT
     BECMG 2021/2100 07012KT
RJOA 192306Z 2000/2106 12009KT 9999 FEW025
     BECMG 2015/2018 06012KT

本日は気温が低く日射が強いことからサーマルを期待しましたが、昼過ぎには積雲が消えてしまいました。
フライトは、笠岡ふれあい空港までNAV訓練に出たり、いつも通りTGL訓練やサーマルに挑戦していました。
また、本日は見学者2名がフライトを体験されました。



解散    16:39

1番機  11:00離陸 撤収機  16:10着陸 

SF25C JA2330 ファルケ     07Flt.3h15min  
17E   JA2342 タイフーン    05Flt.2h05min  
合計                    12Flt.5h20min

 水没HDD;復旧    DELL^データ復旧

ホームページへ 全 47 件 [ 1 2 3 4 5 ]

モータースポーツ | 管理者へメール | お知らせ | 一括削除
携帯から使う方法 | ヘルプ | 利用規約 | 違反報告 | 管理パネル



- 無料レンタル掲示板 -